createdAt,value
2023-05-22T00:01:29.320Z,2.83
2023-05-22T00:03:56.619Z,3.85
2023-05-22T00:06:25.008Z,2.47
2023-05-22T00:08:52.219Z,2.50
2023-05-22T00:11:19.589Z,2.90
2023-05-22T00:13:46.949Z,3.25
2023-05-22T00:16:14.358Z,2.40
2023-05-22T00:18:42.847Z,3.35
2023-05-22T00:21:11.337Z,2.80
2023-05-22T00:23:38.638Z,2.97
2023-05-22T00:26:06.107Z,3.05
2023-05-22T00:28:33.344Z,2.95
2023-05-22T00:31:00.907Z,3.10
2023-05-22T00:33:28.244Z,3.40
2023-05-22T00:35:55.041Z,3.00
2023-05-22T00:38:33.158Z,2.72
2023-05-22T00:41:05.275Z,2.90
2023-05-22T00:43:32.925Z,2.92
2023-05-22T00:46:00.656Z,2.67
2023-05-22T00:48:28.231Z,2.95
2023-05-22T00:50:57.858Z,2.53
2023-05-22T00:53:26.352Z,2.10
2023-05-22T00:55:54.814Z,2.50
2023-05-22T00:58:22.473Z,2.63
2023-05-22T01:00:49.952Z,2.47
2023-05-22T01:03:19.340Z,2.50
2023-05-22T01:05:46.673Z,2.50
2023-05-22T01:08:13.959Z,3.05
2023-05-22T01:10:41.952Z,2.88
2023-05-22T01:13:40.264Z,3.47
2023-05-22T01:16:30.823Z,2.85
2023-05-22T01:19:08.999Z,3.17
2023-05-22T01:21:52.553Z,2.80
2023-05-22T01:24:52.418Z,2.63
2023-05-22T01:27:48.159Z,3.55
2023-05-22T01:30:46.364Z,2.80
2023-05-22T01:33:17.561Z,2.90
2023-05-22T01:35:54.448Z,2.55
2023-05-22T01:38:23.327Z,2.88
2023-05-22T01:40:50.946Z,2.47
2023-05-22T01:43:19.307Z,2.42
2023-05-22T01:45:46.706Z,2.55
2023-05-22T01:48:13.922Z,2.75
2023-05-22T01:50:41.242Z,2.50
2023-05-22T01:53:17.345Z,2.53
2023-05-22T01:55:57.698Z,3.28
2023-05-22T01:58:45.709Z,2.88
2023-05-22T02:01:15.628Z,2.20
2023-05-22T02:03:43.753Z,2.55
2023-05-22T02:06:14.512Z,2.58
2023-05-22T02:08:42.753Z,2.28
2023-05-22T02:11:12.591Z,2.47
2023-05-22T02:13:40.642Z,2.45
2023-05-22T02:16:08.165Z,2.40
2023-05-22T02:18:35.519Z,2.85
2023-05-22T02:21:03.819Z,2.05
2023-05-22T02:23:31.425Z,2.60
2023-05-22T02:25:58.287Z,2.65
2023-05-22T02:28:25.074Z,2.20
2023-05-22T02:30:52.031Z,2.35
2023-05-22T02:33:19.515Z,2.70
2023-05-22T02:35:46.890Z,2.25
2023-05-22T02:38:14.438Z,2.60
2023-05-22T02:40:41.470Z,2.00
2023-05-22T02:43:09.244Z,2.03
2023-05-22T02:45:36.573Z,2.47
2023-05-22T02:48:04.033Z,2.28
2023-05-22T02:50:30.965Z,2.55
2023-05-22T02:52:58.315Z,1.90
2023-05-22T02:55:26.380Z,2.33
2023-05-22T02:57:53.540Z,2.47
2023-05-22T03:00:21.444Z,2.00
2023-05-22T03:02:48.502Z,2.67
2023-05-22T03:05:18.627Z,3.30
2023-05-22T03:07:48.348Z,2.25
2023-05-22T03:10:16.348Z,2.28
2023-05-22T03:12:43.729Z,2.50
2023-05-22T03:15:11.854Z,2.67
2023-05-22T03:17:38.671Z,2.30
2023-05-22T03:20:08.094Z,2.03
2023-05-22T03:22:35.410Z,3.33
2023-05-22T03:25:02.474Z,2.50
2023-05-22T03:27:29.711Z,2.05
2023-05-22T03:29:56.425Z,2.83
2023-05-22T03:32:23.927Z,2.53
2023-05-22T03:34:51.295Z,7.55
2023-05-22T03:37:18.721Z,10.10
2023-05-22T03:39:46.172Z,8.20
2023-05-22T03:42:14.207Z,4.63
2023-05-22T03:44:40.944Z,4.30
2023-05-22T03:47:08.192Z,4.35
2023-05-22T03:49:35.657Z,4.15
2023-05-22T03:52:03.398Z,3.30
2023-05-22T03:54:30.580Z,2.80
2023-05-22T03:56:57.972Z,3.72
2023-05-22T03:59:24.871Z,3.28
2023-05-22T04:01:52.327Z,3.40
2023-05-22T04:04:20.340Z,3.20
2023-05-22T04:06:47.577Z,2.58
2023-05-22T04:09:15.925Z,3.30
2023-05-22T04:11:43.263Z,3.03
2023-05-22T04:14:10.568Z,2.65
2023-05-22T04:16:37.351Z,2.95
2023-05-22T04:19:04.888Z,3.40
2023-05-22T04:21:34.606Z,2.70
2023-05-22T04:24:07.605Z,2.65
2023-05-22T04:26:34.987Z,2.90
2023-05-22T04:29:03.395Z,3.05
2023-05-22T04:31:30.887Z,2.55
2023-05-22T04:34:00.387Z,3.17
2023-05-22T04:36:27.289Z,2.70
2023-05-22T04:38:54.586Z,2.92
2023-05-22T04:41:29.297Z,3.17
2023-05-22T04:43:56.703Z,3.25
2023-05-22T04:46:24.473Z,2.95
2023-05-22T04:48:51.805Z,3.50
2023-05-22T04:51:19.209Z,2.83
2023-05-22T04:53:46.727Z,3.25
2023-05-22T04:56:16.543Z,2.70
2023-05-22T04:58:50.870Z,2.67
2023-05-22T05:01:17.660Z,2.40
2023-05-22T05:03:45.547Z,2.90
2023-05-22T05:06:15.631Z,2.75
2023-05-22T05:08:44.828Z,2.97
2023-05-22T05:11:12.115Z,4.07
2023-05-22T05:13:39.546Z,3.53
2023-05-22T05:16:07.469Z,3.85
2023-05-22T05:18:34.655Z,3.50
2023-05-22T05:21:01.539Z,2.95
2023-05-22T05:23:28.984Z,2.67
2023-05-22T05:25:56.585Z,2.83
2023-05-22T05:28:23.917Z,2.95
2023-05-22T05:30:51.242Z,3.03
2023-05-22T05:33:20.241Z,3.25
2023-05-22T05:35:47.491Z,2.42
2023-05-22T05:38:14.793Z,2.33
2023-05-22T05:40:42.488Z,2.90
2023-05-22T05:43:10.034Z,2.53
2023-05-22T05:45:37.005Z,2.58
2023-05-22T05:48:04.009Z,2.97
2023-05-22T05:50:31.442Z,2.90
2023-05-22T05:52:58.357Z,3.22
2023-05-22T05:55:25.981Z,3.30
2023-05-22T05:57:53.243Z,3.10
2023-05-22T06:00:20.981Z,2.83
2023-05-22T06:02:50.756Z,2.78
2023-05-22T06:05:19.609Z,2.95
2023-05-22T06:07:48.451Z,2.00
2023-05-22T06:10:16.006Z,2.80
2023-05-22T06:12:43.567Z,2.30
2023-05-22T06:15:13.346Z,3.42
2023-05-22T06:17:40.737Z,2.78
2023-05-22T06:20:09.249Z,2.90
2023-05-22T06:22:37.205Z,2.50
2023-05-22T06:25:05.596Z,2.63
2023-05-22T06:27:33.012Z,2.50
2023-05-22T06:30:00.458Z,2.30
2023-05-22T06:32:27.730Z,2.80
2023-05-22T06:34:55.202Z,2.40
2023-05-22T06:37:22.477Z,2.50
2023-05-22T06:39:49.265Z,2.58
2023-05-22T06:42:16.647Z,2.95
2023-05-22T06:44:44.086Z,2.67
2023-05-22T06:47:11.754Z,2.22
2023-05-22T06:49:39.123Z,2.63
2023-05-22T06:52:06.528Z,2.40
2023-05-22T06:54:33.867Z,2.20
2023-05-22T06:57:01.128Z,2.58
2023-05-22T06:59:28.488Z,2.38
2023-05-22T07:01:55.889Z,2.42
2023-05-22T07:04:23.176Z,2.15
2023-05-22T07:06:50.151Z,2.42
2023-05-22T07:09:18.292Z,2.55
2023-05-22T07:11:46.570Z,2.35
2023-05-22T07:14:13.795Z,2.22
2023-05-22T07:16:42.412Z,2.83
2023-05-22T07:19:11.413Z,2.67
2023-05-22T07:21:38.694Z,2.40
2023-05-22T07:24:08.981Z,2.22
2023-05-22T07:26:36.768Z,2.63
2023-05-22T07:29:05.101Z,2.10
2023-05-22T07:31:34.144Z,2.20
2023-05-22T07:34:02.937Z,2.13
2023-05-22T07:36:30.197Z,2.00
2023-05-22T07:38:57.086Z,2.15
2023-05-22T07:41:26.017Z,1.80
2023-05-22T07:43:53.317Z,1.80
2023-05-22T07:46:20.790Z,2.33
2023-05-22T07:48:48.136Z,1.50
2023-05-22T07:51:15.479Z,2.58
2023-05-22T07:53:42.948Z,2.42
2023-05-22T07:56:10.218Z,2.03
2023-05-22T07:58:38.063Z,2.05
2023-05-22T08:01:08.037Z,2.22
2023-05-22T08:03:36.113Z,1.55
2023-05-22T08:06:05.000Z,1.80
2023-05-22T08:08:33.306Z,1.88
2023-05-22T08:11:04.184Z,2.10
2023-05-22T08:13:32.154Z,2.40
2023-05-22T08:16:00.197Z,2.13
2023-05-22T08:18:29.956Z,1.88
2023-05-22T08:20:57.754Z,1.83
2023-05-22T08:23:25.066Z,1.73
2023-05-22T08:25:52.397Z,1.90
2023-05-22T08:28:19.781Z,3.25
2023-05-22T08:30:47.205Z,3.00
2023-05-22T08:33:14.563Z,2.58
2023-05-22T08:35:41.945Z,2.40
2023-05-22T08:38:08.691Z,2.42
2023-05-22T08:40:42.578Z,1.90
2023-05-22T08:43:11.396Z,2.35
2023-05-22T08:45:43.062Z,2.40
2023-05-22T08:48:13.852Z,1.88
2023-05-22T08:50:43.756Z,2.20
2023-05-22T08:53:13.627Z,1.98
2023-05-22T08:55:41.054Z,2.25
2023-05-22T08:58:09.429Z,3.03
2023-05-22T09:00:36.756Z,2.45
2023-05-22T09:03:06.961Z,2.38
2023-05-22T09:05:34.673Z,1.98
2023-05-22T09:08:15.916Z,2.30
2023-05-22T09:10:47.557Z,2.38
2023-05-22T09:13:26.580Z,2.05
2023-05-22T09:15:53.853Z,2.60
2023-05-22T09:18:22.288Z,2.70
2023-05-22T09:20:51.090Z,2.58
2023-05-22T09:23:18.919Z,2.20
2023-05-22T09:25:47.088Z,4.95
2023-05-22T09:28:14.502Z,2.00
2023-05-22T09:30:42.907Z,2.40
2023-05-22T09:33:13.421Z,2.63
2023-05-22T09:35:42.360Z,2.22
2023-05-22T09:38:10.863Z,2.17
2023-05-22T09:40:41.126Z,2.17
2023-05-22T09:43:11.983Z,2.33
2023-05-22T09:45:39.830Z,1.98
2023-05-22T09:48:09.134Z,2.15
2023-05-22T09:50:42.566Z,2.33
2023-05-22T09:53:10.563Z,2.60
2023-05-22T09:55:38.299Z,2.95
2023-05-22T09:58:07.727Z,2.45
2023-05-22T10:00:37.175Z,2.70
2023-05-22T10:03:12.720Z,2.65
2023-05-22T10:05:46.980Z,2.20
2023-05-22T10:08:29.333Z,2.13
2023-05-22T10:10:56.885Z,2.45
2023-05-22T10:13:25.961Z,2.50
2023-05-22T10:15:55.037Z,2.72
2023-05-22T10:18:22.555Z,2.47
2023-05-22T10:20:51.190Z,2.28
2023-05-22T10:23:19.537Z,2.47
2023-05-22T10:25:47.366Z,2.60
2023-05-22T10:28:22.158Z,2.35
2023-05-22T10:31:24.800Z,2.63
2023-05-22T10:33:59.880Z,3.10
2023-05-22T10:36:36.685Z,2.40
2023-05-22T10:39:34.949Z,2.50
2023-05-22T10:42:01.983Z,2.58
2023-05-22T10:44:29.311Z,2.70
2023-05-22T10:46:56.775Z,2.17
2023-05-22T10:49:24.187Z,2.30
2023-05-22T10:51:57.245Z,1.98
2023-05-22T10:54:49.662Z,2.22
2023-05-22T10:57:18.459Z,2.30
2023-05-22T10:59:48.491Z,2.70
2023-05-22T11:02:25.838Z,2.17
2023-05-22T11:04:53.127Z,2.20
2023-05-22T11:07:20.012Z,2.42
2023-05-22T11:09:50.346Z,2.40
2023-05-22T11:12:31.300Z,2.20
2023-05-22T11:15:02.606Z,2.50
2023-05-22T11:17:31.631Z,2.42
2023-05-22T11:20:08.601Z,2.47
2023-05-22T11:22:37.657Z,2.50
2023-05-22T11:25:11.235Z,2.30
2023-05-22T11:27:40.821Z,2.95
2023-05-22T11:30:09.773Z,1.92
2023-05-22T11:32:45.058Z,2.75
2023-05-22T11:35:17.658Z,2.40
2023-05-22T11:37:45.003Z,2.17
2023-05-22T11:40:15.556Z,2.50
2023-05-22T11:42:43.110Z,2.38
2023-05-22T11:45:11.045Z,2.25
2023-05-22T11:47:38.972Z,2.50
2023-05-22T11:50:09.473Z,2.70
2023-05-22T11:52:38.075Z,2.17
2023-05-22T11:55:06.345Z,2.85
2023-05-22T11:57:34.723Z,3.13
2023-05-22T12:00:02.626Z,3.55
2023-05-22T12:02:30.835Z,3.03
2023-05-22T12:04:58.925Z,2.30
2023-05-22T12:07:28.040Z,2.53
2023-05-22T12:09:59.085Z,2.58
2023-05-22T12:12:26.632Z,2.45
2023-05-22T12:14:53.860Z,2.33
2023-05-22T12:17:21.269Z,2.67
2023-05-22T12:19:48.527Z,3.10
2023-05-22T12:22:15.393Z,2.40
2023-05-22T12:24:47.844Z,2.28
2023-05-22T12:27:16.036Z,2.80
2023-05-22T12:29:43.696Z,2.72
2023-05-22T12:32:12.315Z,2.58
2023-05-22T12:34:47.459Z,2.20
2023-05-22T12:37:22.581Z,2.38
2023-05-22T12:39:56.774Z,2.35
2023-05-22T12:42:25.111Z,2.30
2023-05-22T12:44:56.751Z,2.33
2023-05-22T12:47:25.362Z,1.92
2023-05-22T12:49:53.236Z,2.20
2023-05-22T12:52:20.907Z,2.42
2023-05-22T12:54:48.137Z,2.28
2023-05-22T12:57:17.196Z,2.15
2023-05-22T12:59:44.413Z,1.80
2023-05-22T13:02:11.905Z,2.50
2023-05-22T13:04:39.106Z,2.38
2023-05-22T13:07:06.679Z,2.15
2023-05-22T13:09:34.031Z,2.38
2023-05-22T13:12:01.394Z,2.42
2023-05-22T13:14:28.755Z,2.05
2023-05-22T13:16:56.088Z,2.15
2023-05-22T13:19:23.532Z,2.13
2023-05-22T13:21:50.786Z,2.10
2023-05-22T13:24:18.101Z,2.25
2023-05-22T13:26:45.493Z,2.10
2023-05-22T13:29:12.730Z,2.47
2023-05-22T13:31:40.174Z,2.70
2023-05-22T13:34:07.729Z,2.00
2023-05-22T13:36:35.100Z,2.10
2023-05-22T13:39:01.909Z,2.00
2023-05-22T13:41:29.227Z,2.55
2023-05-22T13:43:56.546Z,2.47
2023-05-22T13:46:23.450Z,2.50
2023-05-22T13:48:51.002Z,2.35
2023-05-22T13:51:18.265Z,2.33
2023-05-22T13:53:45.484Z,2.55
2023-05-22T13:56:12.654Z,2.72
2023-05-22T13:58:40.111Z,2.30
2023-05-22T14:01:07.134Z,2.70
2023-05-22T14:03:34.638Z,2.50
2023-05-22T14:06:02.379Z,2.20
2023-05-22T14:08:29.653Z,2.83
2023-05-22T14:10:56.890Z,2.33
2023-05-22T14:13:24.288Z,2.40
2023-05-22T14:15:51.283Z,2.80
2023-05-22T14:18:18.722Z,2.50
2023-05-22T14:20:46.642Z,2.83
2023-05-22T14:23:14.889Z,2.60
2023-05-22T14:25:46.021Z,2.72
2023-05-22T14:28:14.367Z,2.67
2023-05-22T14:30:41.769Z,2.08
2023-05-22T14:33:09.456Z,2.70
2023-05-22T14:35:36.751Z,3.10
2023-05-22T14:38:04.048Z,2.40
2023-05-22T14:40:31.482Z,3.25
2023-05-22T14:42:58.764Z,2.83
2023-05-22T14:45:26.140Z,2.63
2023-05-22T14:47:53.635Z,3.10
2023-05-22T14:50:21.222Z,2.60
2023-05-22T14:52:49.602Z,2.45
2023-05-22T14:55:18.008Z,2.60
2023-05-22T14:57:45.589Z,2.55
2023-05-22T15:00:13.426Z,2.80
2023-05-22T15:02:41.425Z,2.58
2023-05-22T15:05:09.325Z,2.60
2023-05-22T15:10:07.923Z,2.20
2023-05-22T15:12:35.229Z,2.40
2023-05-22T15:15:02.486Z,2.63
2023-05-22T15:17:29.262Z,2.88
2023-05-22T15:19:56.585Z,2.70
2023-05-22T15:22:23.800Z,3.13
2023-05-22T15:25:04.262Z,3.08
2023-05-22T15:27:32.128Z,2.45
2023-05-22T15:29:59.588Z,2.25
2023-05-22T15:32:26.937Z,2.50
2023-05-22T15:34:54.236Z,3.00
2023-05-22T15:37:21.946Z,2.45
2023-05-22T15:39:49.671Z,2.88
2023-05-22T15:42:17.035Z,2.72
2023-05-22T15:44:44.360Z,2.33
2023-05-22T15:47:11.080Z,2.30
2023-05-22T15:49:38.333Z,2.33
2023-05-22T15:52:05.714Z,2.20
2023-05-22T15:54:33.149Z,2.58
2023-05-22T15:57:00.364Z,2.53
2023-05-22T15:59:27.675Z,2.90
2023-05-22T16:01:54.971Z,2.42
2023-05-22T16:04:22.742Z,2.65
2023-05-22T16:06:50.216Z,2.70
2023-05-22T16:09:19.836Z,2.75
2023-05-22T16:11:47.315Z,2.50
2023-05-22T16:14:14.804Z,2.65
2023-05-22T16:16:42.115Z,2.35
2023-05-22T16:19:10.572Z,2.65
2023-05-22T16:21:38.424Z,2.58
2023-05-22T16:24:07.326Z,2.67
2023-05-22T16:26:34.632Z,2.70
2023-05-22T16:29:01.983Z,2.45
2023-05-22T16:31:30.510Z,2.60
2023-05-22T16:33:57.298Z,2.53
2023-05-22T16:36:27.003Z,2.78
2023-05-22T16:38:54.637Z,2.95
2023-05-22T16:41:23.435Z,2.78
2023-05-22T16:43:51.414Z,2.75
2023-05-22T16:46:19.205Z,3.42
2023-05-22T16:48:46.629Z,3.22
2023-05-22T16:51:13.881Z,2.88
2023-05-22T16:53:42.311Z,3.17
2023-05-22T16:56:09.123Z,2.92
2023-05-22T16:58:36.341Z,2.72
2023-05-22T17:01:03.536Z,3.47
2023-05-22T17:03:30.845Z,2.75
2023-05-22T17:05:57.848Z,2.97
2023-05-22T17:08:28.622Z,3.35
2023-05-22T17:10:56.557Z,3.47
2023-05-22T17:13:23.966Z,3.13
2023-05-22T17:15:51.780Z,2.45
2023-05-22T17:18:22.804Z,2.72
2023-05-22T17:20:50.490Z,2.95
2023-05-22T17:23:17.730Z,3.50
2023-05-22T17:25:46.955Z,3.28
2023-05-22T17:28:17.568Z,3.00
2023-05-22T17:30:46.829Z,2.88
2023-05-22T17:33:14.259Z,3.22
2023-05-22T17:35:41.589Z,3.28
2023-05-22T17:38:09.086Z,2.70
2023-05-22T17:40:44.926Z,2.85
2023-05-22T17:43:13.895Z,2.92
2023-05-22T17:45:40.969Z,3.00
2023-05-22T17:48:08.512Z,3.30
2023-05-22T17:50:35.389Z,3.22
2023-05-22T17:53:02.761Z,2.90
2023-05-22T17:55:29.695Z,3.85
2023-05-22T17:57:57.028Z,5.00
2023-05-22T18:00:24.605Z,11.00
2023-05-22T18:02:51.982Z,5.82
2023-05-22T18:05:19.406Z,5.82
2023-05-22T18:07:46.625Z,8.60
2023-05-22T18:10:14.000Z,9.98
2023-05-22T18:12:41.416Z,13.35
2023-05-22T18:15:11.130Z,12.27
2023-05-22T18:17:39.057Z,7.75
2023-05-22T18:20:08.567Z,9.43
2023-05-22T18:22:37.319Z,8.10
2023-05-22T18:25:05.381Z,8.15
2023-05-22T18:27:33.715Z,6.95
2023-05-22T18:30:01.009Z,15.15
2023-05-22T18:32:27.862Z,8.90
2023-05-22T18:34:55.210Z,7.75
2023-05-22T18:37:23.183Z,7.53
2023-05-22T18:39:50.803Z,7.50
2023-05-22T18:42:18.125Z,14.98
2023-05-22T18:44:46.859Z,17.38
2023-05-22T18:47:16.080Z,8.23
2023-05-22T18:49:43.672Z,3.72
2023-05-22T18:52:11.158Z,3.80
2023-05-22T18:54:38.488Z,3.28
2023-05-22T18:57:05.884Z,3.90
2023-05-22T18:59:32.626Z,4.22
2023-05-22T19:02:00.287Z,4.38
2023-05-22T19:04:27.753Z,3.25
2023-05-22T19:06:55.064Z,2.85
2023-05-22T19:09:22.790Z,3.50
2023-05-22T19:11:50.196Z,2.72
2023-05-22T19:14:17.369Z,2.88
2023-05-22T19:16:44.805Z,3.15
2023-05-22T19:19:12.250Z,3.03
2023-05-22T19:21:39.890Z,2.90
2023-05-22T19:24:07.621Z,3.00
2023-05-22T19:26:35.125Z,3.72
2023-05-22T19:29:02.497Z,3.33
2023-05-22T19:31:30.221Z,4.30
2023-05-22T19:33:57.679Z,3.38
2023-05-22T19:36:25.129Z,4.07
2023-05-22T19:38:53.601Z,3.78
2023-05-22T19:41:21.925Z,3.35
2023-05-22T19:43:49.565Z,3.63
2023-05-22T19:46:16.370Z,3.03
2023-05-22T19:48:43.875Z,3.20
2023-05-22T19:51:11.255Z,3.50
2023-05-22T19:53:38.743Z,4.13
2023-05-22T19:56:06.123Z,4.35
2023-05-22T19:58:33.565Z,5.95
2023-05-22T20:01:01.160Z,6.93
2023-05-22T20:03:28.605Z,6.75
2023-05-22T20:05:56.211Z,6.97
2023-05-22T20:08:23.538Z,9.43
2023-05-22T20:10:50.451Z,11.25
2023-05-22T20:13:17.904Z,10.63
2023-05-22T20:15:48.062Z,9.63
2023-05-22T20:18:15.512Z,8.27
2023-05-22T20:20:42.935Z,7.35
2023-05-22T20:23:10.297Z,8.43
2023-05-22T20:25:38.244Z,7.35
2023-05-22T20:28:05.660Z,8.23
2023-05-22T20:30:33.243Z,8.10
2023-05-22T20:33:00.658Z,6.97
2023-05-22T20:35:27.630Z,6.93
2023-05-22T20:37:54.961Z,6.15
2023-05-22T20:40:22.348Z,6.40
2023-05-22T20:42:49.676Z,6.13
2023-05-22T20:45:17.913Z,6.95
2023-05-22T20:47:45.311Z,6.38
2023-05-22T20:50:12.918Z,5.68
2023-05-22T20:52:40.521Z,5.03
2023-05-22T20:55:08.431Z,5.40
2023-05-22T20:57:35.724Z,5.78
2023-05-22T21:00:03.056Z,4.70
2023-05-22T21:02:29.862Z,4.60
2023-05-22T21:04:57.082Z,4.55
2023-05-22T21:07:24.545Z,5.03
2023-05-22T21:09:51.872Z,4.78
2023-05-22T21:12:19.270Z,4.55
2023-05-22T21:14:47.543Z,4.10
2023-05-22T21:17:15.107Z,4.63
2023-05-22T21:19:42.399Z,4.05
2023-05-22T21:22:09.852Z,4.72
2023-05-22T21:24:37.164Z,4.13
2023-05-22T21:27:04.430Z,3.83
2023-05-22T21:29:31.700Z,4.22
2023-05-22T21:31:59.424Z,4.10
2023-05-22T21:34:26.813Z,3.88
2023-05-22T21:36:54.075Z,4.72
2023-05-22T21:39:21.308Z,3.55
2023-05-22T21:41:49.953Z,3.75
2023-05-22T21:44:17.527Z,3.58
2023-05-22T21:46:44.781Z,3.33
2023-05-22T21:49:12.105Z,3.53
2023-05-22T21:51:39.229Z,3.90
2023-05-22T21:54:06.587Z,3.60
2023-05-22T21:56:33.840Z,3.67
2023-05-22T21:59:00.883Z,3.83
2023-05-22T22:01:28.272Z,3.15
2023-05-22T22:03:55.631Z,4.15
2023-05-22T22:06:22.938Z,3.20
2023-05-22T22:08:50.296Z,3.53
2023-05-22T22:11:17.593Z,3.45
2023-05-22T22:13:44.802Z,3.80
2023-05-22T22:16:12.167Z,3.40
2023-05-22T22:18:39.908Z,3.17
2023-05-22T22:21:07.315Z,3.50
2023-05-22T22:23:34.311Z,3.60
2023-05-22T22:26:01.604Z,3.35
2023-05-22T22:28:29.006Z,2.92
2023-05-22T22:30:59.553Z,3.72
2023-05-22T22:33:26.899Z,3.60
2023-05-22T22:35:54.397Z,3.35
2023-05-22T22:38:22.028Z,3.95
2023-05-22T22:40:49.262Z,3.40
2023-05-22T22:43:16.488Z,3.72
2023-05-22T22:45:44.088Z,3.33
2023-05-22T22:48:11.415Z,3.70
2023-05-22T22:50:39.393Z,3.50
2023-05-22T22:53:06.935Z,3.78
2023-05-22T22:55:34.559Z,3.85
2023-05-22T22:58:02.483Z,4.30
2023-05-22T23:00:29.785Z,4.00
2023-05-22T23:02:57.260Z,3.55
2023-05-22T23:05:24.616Z,3.17
2023-05-22T23:07:52.049Z,3.60
2023-05-22T23:10:19.622Z,3.90
2023-05-22T23:12:48.805Z,3.17
2023-05-22T23:15:16.398Z,3.65
2023-05-22T23:17:43.689Z,3.88
2023-05-22T23:20:11.558Z,3.30
2023-05-22T23:22:38.795Z,3.53
2023-05-22T23:25:06.625Z,3.65
2023-05-22T23:27:33.774Z,4.20
2023-05-22T23:30:01.077Z,3.90
2023-05-22T23:32:29.292Z,3.20
2023-05-22T23:34:56.980Z,4.07
2023-05-22T23:37:24.203Z,3.80
2023-05-22T23:39:51.363Z,3.83
2023-05-22T23:42:19.259Z,3.63
2023-05-22T23:44:46.402Z,3.60
2023-05-22T23:47:13.864Z,3.10
2023-05-22T23:49:41.185Z,3.40
2023-05-22T23:52:08.479Z,3.53
2023-05-22T23:54:35.698Z,3.40
2023-05-22T23:57:02.913Z,3.60
2023-05-22T23:59:30.103Z,3.17
